sensor_id;sensor_type;location;lat;lon;timestamp;pressure;altitude;pressure_sealevel;temperature;humidity
48553;BME280;34335;51.566;6.994;2023-02-20T00:00:35;102057.91;;;4.23;100.00
48553;BME280;34335;51.566;6.994;2023-02-20T00:03:02;102054.16;;;4.16;100.00
48553;BME280;34335;51.566;6.994;2023-02-20T00:05:27;102040.22;;;4.11;100.00
48553;BME280;34335;51.566;6.994;2023-02-20T00:07:52;102043.00;;;4.16;100.00
48553;BME280;34335;51.566;6.994;2023-02-20T00:10:18;102030.94;;;4.15;100.00
48553;BME280;34335;51.566;6.994;2023-02-20T00:12:43;102032.34;;;4.08;100.00
48553;BME280;34335;51.566;6.994;2023-02-20T00:15:12;102037.97;;;4.19;100.00
48553;BME280;34335;51.566;6.994;2023-02-20T00:17:37;102034.53;;;4.18;100.00
48553;BME280;34335;51.566;6.994;2023-02-20T00:20:03;102034.97;;;4.10;100.00
48553;BME280;34335;51.566;6.994;2023-02-20T00:22:29;102030.72;;;4.10;100.00
48553;BME280;34335;51.566;6.994;2023-02-20T00:24:54;102021.97;;;4.07;100.00
48553;BME280;34335;51.566;6.994;2023-02-20T00:27:19;102020.25;;;4.07;100.00
48553;BME280;34335;51.566;6.994;2023-02-20T00:29:45;102014.97;;;4.04;100.00
48553;BME280;34335;51.566;6.994;2023-02-20T00:32:11;102016.81;;;4.07;100.00
48553;BME280;34335;51.566;6.994;2023-02-20T00:34:37;102008.94;;;4.03;100.00
48553;BME280;34335;51.566;6.994;2023-02-20T00:37:02;102002.94;;;4.03;100.00
48553;BME280;34335;51.566;6.994;2023-02-20T00:39:27;102006.97;;;3.98;100.00
48553;BME280;34335;51.566;6.994;2023-02-20T00:41:53;102000.25;;;4.01;100.00
48553;BME280;34335;51.566;6.994;2023-02-20T00:44:20;102001.22;;;4.03;100.00
48553;BME280;34335;51.566;6.994;2023-02-20T00:46:45;101994.16;;;3.99;100.00
48553;BME280;34335;51.566;6.994;2023-02-20T00:49:11;101993.22;;;3.97;100.00
48553;BME280;34335;51.566;6.994;2023-02-20T00:51:36;102002.72;;;3.98;100.00
48553;BME280;34335;51.566;6.994;2023-02-20T00:54:01;101986.53;;;4.01;100.00
48553;BME280;34335;51.566;6.994;2023-02-20T00:56:26;101979.75;;;4.03;100.00
48553;BME280;34335;51.566;6.994;2023-02-20T00:58:52;101979.88;;;4.06;100.00
48553;BME280;34335;51.566;6.994;2023-02-20T01:01:17;101968.63;;;4.04;100.00
48553;BME280;34335;51.566;6.994;2023-02-20T01:03:43;101962.88;;;4.10;100.00
48553;BME280;34335;51.566;6.994;2023-02-20T01:06:08;101950.00;;;4.10;100.00
48553;BME280;34335;51.566;6.994;2023-02-20T01:08:34;101949.72;;;4.03;100.00
48553;BME280;34335;51.566;6.994;2023-02-20T01:10:59;101955.09;;;4.08;100.00
48553;BME280;34335;51.566;6.994;2023-02-20T01:13:25;101951.78;;;4.11;100.00
48553;BME280;34335;51.566;6.994;2023-02-20T01:15:50;101943.53;;;4.18;100.00
48553;BME280;34335;51.566;6.994;2023-02-20T01:18:16;101938.38;;;4.18;100.00
48553;BME280;34335;51.566;6.994;2023-02-20T01:20:41;101939.53;;;4.25;100.00
48553;BME280;34335;51.566;6.994;2023-02-20T01:23:06;101948.06;;;4.24;100.00
48553;BME280;34335;51.566;6.994;2023-02-20T01:25:32;101942.91;;;4.24;100.00
48553;BME280;34335;51.566;6.994;2023-02-20T01:27:57;101943.81;;;4.24;100.00
48553;BME280;34335;51.566;6.994;2023-02-20T01:30:22;101943.94;;;4.27;100.00
48553;BME280;34335;51.566;6.994;2023-02-20T01:32:48;101936.06;;;4.24;100.00
48553;BME280;34335;51.566;6.994;2023-02-20T01:35:14;101932.94;;;4.31;100.00
48553;BME280;34335;51.566;6.994;2023-02-20T01:37:39;101940.53;;;4.28;100.00
48553;BME280;34335;51.566;6.994;2023-02-20T01:40:05;101945.28;;;4.39;100.00
48553;BME280;34335;51.566;6.994;2023-02-20T01:42:32;101933.00;;;4.33;100.00
48553;BME280;34335;51.566;6.994;2023-02-20T01:47:43;101938.31;;;4.36;100.00
48553;BME280;34335;51.566;6.994;2023-02-20T01:50:09;101932.09;;;4.31;100.00
48553;BME280;34335;51.566;6.994;2023-02-20T01:52:35;101931.28;;;4.32;100.00
48553;BME280;34335;51.566;6.994;2023-02-20T01:57:36;101922.09;;;4.39;100.00
48553;BME280;34335;51.566;6.994;2023-02-20T02:00:09;101918.00;;;4.42;100.00
48553;BME280;34335;51.566;6.994;2023-02-20T02:02:37;101916.03;;;4.36;100.00
48553;BME280;34335;51.566;6.994;2023-02-20T02:05:06;101922.31;;;4.43;100.00
48553;BME280;34335;51.566;6.994;2023-02-20T02:07:32;101903.25;;;4.40;100.00
48553;BME280;34335;51.566;6.994;2023-02-20T02:09:59;101906.78;;;4.42;100.00
48553;BME280;34335;51.566;6.994;2023-02-20T02:12:26;101897.09;;;4.36;100.00
48553;BME280;34335;51.566;6.994;2023-02-20T02:14:52;101888.63;;;4.39;100.00
48553;BME280;34335;51.566;6.994;2023-02-20T02:20:33;101883.88;;;4.28;100.00
48553;BME280;34335;51.566;6.994;2023-02-20T02:37:02;101851.50;;;4.14;100.00
48553;BME280;34335;51.566;6.994;2023-02-20T02:39:50;101837.00;;;4.16;100.00
48553;BME280;34335;51.566;6.994;2023-02-20T02:47:54;101842.16;;;4.16;100.00
48553;BME280;34335;51.566;6.994;2023-02-20T02:50:26;101837.88;;;4.16;100.00
48553;BME280;34335;51.566;6.994;2023-02-20T02:52:54;101838.50;;;4.11;100.00
48553;BME280;34335;51.566;6.994;2023-02-20T02:55:28;101819.41;;;4.05;100.00
48553;BME280;34335;51.566;6.994;2023-02-20T02:57:54;101814.66;;;4.15;100.00
48553;BME280;34335;51.566;6.994;2023-02-20T03:03:09;101830.91;;;4.14;100.00
48553;BME280;34335;51.566;6.994;2023-02-20T03:05:49;101811.25;;;4.16;100.00
48553;BME280;34335;51.566;6.994;2023-02-20T03:08:22;101808.34;;;4.08;100.00
48553;BME280;34335;51.566;6.994;2023-02-20T03:10:58;101814.41;;;4.09;100.00
48553;BME280;34335;51.566;6.994;2023-02-20T03:13:29;101813.44;;;4.07;100.00
48553;BME280;34335;51.566;6.994;2023-02-20T03:16:18;101812.50;;;4.04;100.00
48553;BME280;34335;51.566;6.994;2023-02-20T03:18:45;101804.22;;;4.12;100.00
48553;BME280;34335;51.566;6.994;2023-02-20T03:21:18;101813.91;;;4.17;100.00
48553;BME280;34335;51.566;6.994;2023-02-20T03:23:49;101797.81;;;4.23;100.00
48553;BME280;34335;51.566;6.994;2023-02-20T03:26:19;101797.56;;;4.17;100.00
48553;BME280;34335;51.566;6.994;2023-02-20T03:29:10;101791.22;;;4.09;100.00
48553;BME280;34335;51.566;6.994;2023-02-20T03:31:41;101793.91;;;4.12;100.00
48553;BME280;34335;51.566;6.994;2023-02-20T03:34:24;101793.03;;;4.11;100.00
48553;BME280;34335;51.566;6.994;2023-02-20T03:37:16;101792.75;;;4.05;100.00
48553;BME280;34335;51.566;6.994;2023-02-20T03:40:05;101801.63;;;4.12;100.00
48553;BME280;34335;51.566;6.994;2023-02-20T03:42:54;101785.22;;;4.10;100.00
48553;BME280;34335;51.566;6.994;2023-02-20T03:45:41;101789.25;;;4.03;100.00
48553;BME280;34335;51.566;6.994;2023-02-20T03:48:17;101785.72;;;4.01;100.00
48553;BME280;34335;51.566;6.994;2023-02-20T03:50:44;101781.78;;;4.09;100.00
48553;BME280;34335;51.566;6.994;2023-02-20T03:53:28;101782.66;;;4.10;100.00
48553;BME280;34335;51.566;6.994;2023-02-20T03:55:56;101790.28;;;4.07;100.00
48553;BME280;34335;51.566;6.994;2023-02-20T03:58:24;101786.69;;;4.03;100.00
48553;BME280;34335;51.566;6.994;2023-02-20T04:00:52;101787.75;;;4.08;100.00
48553;BME280;34335;51.566;6.994;2023-02-20T04:03:22;101788.38;;;4.02;100.00
48553;BME280;34335;51.566;6.994;2023-02-20T04:05:52;101787.69;;;4.07;100.00
48553;BME280;34335;51.566;6.994;2023-02-20T04:08:26;101779.78;;;4.02;100.00
48553;BME280;34335;51.566;6.994;2023-02-20T04:10:59;101785.66;;;3.99;100.00
48553;BME280;34335;51.566;6.994;2023-02-20T04:13:25;101784.13;;;4.03;100.00
48553;BME280;34335;51.566;6.994;2023-02-20T04:15:51;101780.59;;;4.01;100.00
48553;BME280;34335;51.566;6.994;2023-02-20T04:18:18;101784.03;;;4.01;100.00
48553;BME280;34335;51.566;6.994;2023-02-20T04:20:47;101782.16;;;3.97;100.00
48553;BME280;34335;51.566;6.994;2023-02-20T04:23:16;101775.50;;;4.02;100.00
48553;BME280;34335;51.566;6.994;2023-02-20T04:25:45;101778.44;;;3.90;100.00
48553;BME280;34335;51.566;6.994;2023-02-20T04:28:12;101777.00;;;3.97;100.00
48553;BME280;34335;51.566;6.994;2023-02-20T04:30:38;101777.66;;;3.93;100.00
48553;BME280;34335;51.566;6.994;2023-02-20T04:33:04;101785.25;;;3.90;100.00
48553;BME280;34335;51.566;6.994;2023-02-20T04:35:29;101785.53;;;3.96;100.00
48553;BME280;34335;51.566;6.994;2023-02-20T04:37:55;101787.41;;;4.00;100.00
48553;BME280;34335;51.566;6.994;2023-02-20T04:40:22;101784.59;;;3.94;100.00
48553;BME280;34335;51.566;6.994;2023-02-20T04:42:48;101783.56;;;3.90;100.00
48553;BME280;34335;51.566;6.994;2023-02-20T04:45:14;101766.41;;;3.91;100.00
48553;BME280;34335;51.566;6.994;2023-02-20T04:47:40;101764.59;;;3.88;100.00
48553;BME280;34335;51.566;6.994;2023-02-20T04:50:05;101768.78;;;3.86;100.00
48553;BME280;34335;51.566;6.994;2023-02-20T04:52:30;101759.50;;;3.90;100.00
48553;BME280;34335;51.566;6.994;2023-02-20T04:54:56;101761.28;;;3.91;100.00
48553;BME280;34335;51.566;6.994;2023-02-20T04:57:21;101768.78;;;3.86;100.00
48553;BME280;34335;51.566;6.994;2023-02-20T04:59:47;101766.41;;;3.91;100.00
48553;BME280;34335;51.566;6.994;2023-02-20T05:02:12;101752.53;;;3.87;100.00
48553;BME280;34335;51.566;6.994;2023-02-20T05:04:37;101761.22;;;3.89;100.00
48553;BME280;34335;51.566;6.994;2023-02-20T05:07:03;101752.06;;;3.96;100.00
48553;BME280;34335;51.566;6.994;2023-02-20T05:09:28;101757.34;;;3.99;100.00
48553;BME280;34335;51.566;6.994;2023-02-20T05:11:54;101761.63;;;3.99;100.00
48553;BME280;34335;51.566;6.994;2023-02-20T05:14:20;101745.31;;;3.98;100.00
48553;BME280;34335;51.566;6.994;2023-02-20T05:16:46;101737.16;;;4.09;100.00
48553;BME280;34335;51.566;6.994;2023-02-20T05:19:12;101742.00;;;4.22;100.00
48553;BME280;34335;51.566;6.994;2023-02-20T05:21:41;101746.47;;;4.26;100.00
48553;BME280;34335;51.566;6.994;2023-02-20T05:24:24;101748.03;;;4.23;100.00
48553;BME280;34335;51.566;6.994;2023-02-20T05:26:51;101754.09;;;4.25;100.00
48553;BME280;34335;51.566;6.994;2023-02-20T05:29:17;101752.53;;;4.28;100.00
48553;BME280;34335;51.566;6.994;2023-02-20T05:31:42;101749.41;;;4.35;100.00
48553;BME280;34335;51.566;6.994;2023-02-20T05:34:07;101747.66;;;4.34;100.00
48553;BME280;34335;51.566;6.994;2023-02-20T05:36:33;101745.28;;;4.39;100.00
48553;BME280;34335;51.566;6.994;2023-02-20T05:38:58;101745.47;;;4.44;100.00
48553;BME280;34335;51.566;6.994;2023-02-20T05:41:25;101738.69;;;4.46;100.00
48553;BME280;34335;51.566;6.994;2023-02-20T05:43:51;101729.09;;;4.43;100.00
48553;BME280;34335;51.566;6.994;2023-02-20T05:46:18;101728.38;;;4.46;100.00
48553;BME280;34335;51.566;6.994;2023-02-20T05:48:48;101737.03;;;4.48;100.00
48553;BME280;34335;51.566;6.994;2023-02-20T05:51:22;101733.63;;;4.49;100.00
48553;BME280;34335;51.566;6.994;2023-02-20T05:53:47;101727.47;;;4.45;100.00
48553;BME280;34335;51.566;6.994;2023-02-20T05:56:13;101723.28;;;4.47;100.00
48553;BME280;34335;51.566;6.994;2023-02-20T05:58:41;101723.28;;;4.47;100.00
48553;BME280;34335;51.566;6.994;2023-02-20T06:01:07;101716.38;;;4.46;100.00
48553;BME280;34335;51.566;6.994;2023-02-20T06:03:32;101723.09;;;4.43;100.00
48553;BME280;34335;51.566;6.994;2023-02-20T06:05:57;101721.34;;;4.42;100.00
48553;BME280;34335;51.566;6.994;2023-02-20T06:08:23;101730.88;;;4.44;100.00
48553;BME280;34335;51.566;6.994;2023-02-20T06:10:48;101735.91;;;4.41;100.00
48553;BME280;34335;51.566;6.994;2023-02-20T06:13:13;101729.19;;;4.45;100.00
48553;BME280;34335;51.566;6.994;2023-02-20T06:15:39;101744.50;;;4.42;100.00
48553;BME280;34335;51.566;6.994;2023-02-20T06:18:04;101747.84;;;4.39;100.00
48553;BME280;34335;51.566;6.994;2023-02-20T06:20:29;101759.09;;;4.41;100.00
48553;BME280;34335;51.566;6.994;2023-02-20T06:22:55;101757.44;;;4.43;100.00
48553;BME280;34335;51.566;6.994;2023-02-20T06:25:21;101758.34;;;4.44;100.00
48553;BME280;34335;51.566;6.994;2023-02-20T06:27:46;101767.06;;;4.47;100.00
48553;BME280;34335;51.566;6.994;2023-02-20T06:30:12;101772.09;;;4.44;100.00
48553;BME280;34335;51.566;6.994;2023-02-20T06:32:37;101771.34;;;4.47;100.00
48553;BME280;34335;51.566;6.994;2023-02-20T06:35:03;101771.22;;;4.44;100.00
48553;BME280;34335;51.566;6.994;2023-02-20T06:37:28;101774.75;;;4.46;100.00
48553;BME280;34335;51.566;6.994;2023-02-20T06:39:53;101768.66;;;4.44;100.00
48553;BME280;34335;51.566;6.994;2023-02-20T06:42:19;101779.81;;;4.44;100.00
48553;BME280;34335;51.566;6.994;2023-02-20T06:44:45;101774.75;;;4.46;100.00
48553;BME280;34335;51.566;6.994;2023-02-20T06:47:10;101774.84;;;4.49;100.00
48553;BME280;34335;51.566;6.994;2023-02-20T06:49:36;101777.50;;;4.50;100.00
48553;BME280;34335;51.566;6.994;2023-02-20T06:52:04;101771.47;;;4.50;100.00
48553;BME280;34335;51.566;6.994;2023-02-20T06:54:29;101781.00;;;4.52;100.00
48553;BME280;34335;51.566;6.994;2023-02-20T06:56:55;101779.31;;;4.53;100.00
48553;BME280;34335;51.566;6.994;2023-02-20T06:59:21;101767.31;;;4.53;100.00
48553;BME280;34335;51.566;6.994;2023-02-20T07:01:47;101775.84;;;4.52;100.00
48553;BME280;34335;51.566;6.994;2023-02-20T07:04:21;101773.47;;;4.57;100.00
48553;BME280;34335;51.566;6.994;2023-02-20T07:06:47;101769.44;;;4.64;100.00
48553;BME280;34335;51.566;6.994;2023-02-20T07:09:13;101771.72;;;4.56;100.00
48553;BME280;34335;51.566;6.994;2023-02-20T07:11:39;101777.81;;;4.58;100.00
48553;BME280;34335;51.566;6.994;2023-02-20T07:14:04;101770.88;;;4.57;100.00
48553;BME280;34335;51.566;6.994;2023-02-20T07:16:29;101776.03;;;4.57;100.00
48553;BME280;34335;51.566;6.994;2023-02-20T07:18:55;101765.69;;;4.56;100.00
48553;BME280;34335;51.566;6.994;2023-02-20T07:21:21;101760.53;;;4.56;100.00
48553;BME280;34335;51.566;6.994;2023-02-20T07:23:46;101767.50;;;4.58;100.00
48553;BME280;34335;51.566;6.994;2023-02-20T07:26:20;101777.88;;;4.60;100.00
48553;BME280;34335;51.566;6.994;2023-02-20T07:28:47;101772.97;;;4.66;100.00
48553;BME280;34335;51.566;6.994;2023-02-20T07:31:12;101766.19;;;4.68;100.00
48553;BME280;34335;51.566;6.994;2023-02-20T07:33:38;101766.06;;;4.65;100.00
48553;BME280;34335;51.566;6.994;2023-02-20T07:36:03;101774.88;;;4.70;100.00
48553;BME280;34335;51.566;6.994;2023-02-20T07:38:29;101763.66;;;4.70;100.00
48553;BME280;34335;51.566;6.994;2023-02-20T07:40:54;101773.22;;;4.72;100.00
48553;BME280;34335;51.566;6.994;2023-02-20T07:43:19;101785.38;;;4.75;100.00
48553;BME280;34335;51.566;6.994;2023-02-20T07:45:45;101775.09;;;4.76;100.00
48553;BME280;34335;51.566;6.994;2023-02-20T07:48:10;101777.72;;;4.78;100.00
48553;BME280;34335;51.566;6.994;2023-02-20T07:50:35;101762.28;;;4.78;100.00
48553;BME280;34335;51.566;6.994;2023-02-20T07:53:01;101764.94;;;4.79;100.00
48553;BME280;34335;51.566;6.994;2023-02-20T07:55:26;101760.81;;;4.84;100.00
48553;BME280;34335;51.566;6.994;2023-02-20T07:57:51;101765.16;;;4.86;100.00
48553;BME280;34335;51.566;6.994;2023-02-20T08:00:19;101766.03;;;4.86;100.00
48553;BME280;34335;51.566;6.994;2023-02-20T08:02:45;101761.81;;;4.88;100.00
48553;BME280;34335;51.566;6.994;2023-02-20T08:05:11;101773.06;;;4.90;100.00
48553;BME280;34335;51.566;6.994;2023-02-20T08:07:36;101765.38;;;4.92;100.00
48553;BME280;34335;51.566;6.994;2023-02-20T08:10:02;101772.50;;;4.97;100.00
48553;BME280;34335;51.566;6.994;2023-02-20T08:12:28;101786.50;;;5.04;100.00
48553;BME280;34335;51.566;6.994;2023-02-20T08:14:53;101771.75;;;5.00;100.00
48553;BME280;34335;51.566;6.994;2023-02-20T08:17:18;101778.72;;;5.03;100.00
48553;BME280;34335;51.566;6.994;2023-02-20T08:19:44;101782.25;;;5.05;100.00
48553;BME280;34335;51.566;6.994;2023-02-20T08:22:09;101783.25;;;5.08;100.00
48553;BME280;34335;51.566;6.994;2023-02-20T08:24:35;101772.84;;;5.07;100.00
48553;BME280;34335;51.566;6.994;2023-02-20T08:27:00;101771.38;;;5.13;100.00
48553;BME280;34335;51.566;6.994;2023-02-20T08:29:26;101775.69;;;5.13;100.00
48553;BME280;34335;51.566;6.994;2023-02-20T08:31:51;101768.00;;;5.14;100.00
48553;BME280;34335;51.566;6.994;2023-02-20T08:34:16;101769.94;;;5.20;100.00
48553;BME280;34335;51.566;6.994;2023-02-20T08:36:42;101753.56;;;5.20;100.00
48553;BME280;34335;51.566;6.994;2023-02-20T08:39:07;101760.56;;;5.22;100.00
48553;BME280;34335;51.566;6.994;2023-02-20T08:41:32;101760.56;;;5.22;100.00
48553;BME280;34335;51.566;6.994;2023-02-20T08:43:58;101755.50;;;5.25;100.00
48553;BME280;34335;51.566;6.994;2023-02-20T08:46:23;101755.63;;;5.28;100.00
48553;BME280;34335;51.566;6.994;2023-02-20T08:48:49;101752.22;;;5.29;100.00
48553;BME280;34335;51.566;6.994;2023-02-20T08:51:18;101748.81;;;5.30;100.00
48553;BME280;34335;51.566;6.994;2023-02-20T08:53:44;101736.97;;;5.36;100.00
48553;BME280;34335;51.566;6.994;2023-02-20T08:56:09;101739.50;;;5.34;100.00
48553;BME280;34335;51.566;6.994;2023-02-20T08:58:36;101746.41;;;5.35;100.00
48553;BME280;34335;51.566;6.994;2023-02-20T09:01:02;101744.81;;;5.39;100.00
48553;BME280;34335;51.566;6.994;2023-02-20T09:03:27;101738.84;;;5.40;100.00
48553;BME280;34335;51.566;6.994;2023-02-20T09:05:53;101750.94;;;5.41;100.00
48553;BME280;34335;51.566;6.994;2023-02-20T09:08:18;101749.28;;;5.43;100.00
48553;BME280;34335;51.566;6.994;2023-02-20T09:10:44;101747.69;;;5.46;100.00
48553;BME280;34335;51.566;6.994;2023-02-20T09:13:09;101749.50;;;5.49;100.00
48553;BME280;34335;51.566;6.994;2023-02-20T09:15:35;101747.91;;;5.53;100.00
48553;BME280;34335;51.566;6.994;2023-02-20T09:18:04;101753.13;;;5.54;100.00
48553;BME280;34335;51.566;6.994;2023-02-20T09:20:31;101758.28;;;5.54;100.00
48553;BME280;34335;51.566;6.994;2023-02-20T09:22:58;101761.94;;;5.59;100.00
48553;BME280;34335;51.566;6.994;2023-02-20T09:25:24;101758.41;;;5.57;100.00
48553;BME280;34335;51.566;6.994;2023-02-20T09:27:50;101750.03;;;5.65;100.00
48553;BME280;34335;51.566;6.994;2023-02-20T09:30:17;101753.56;;;5.67;100.00
48553;BME280;34335;51.566;6.994;2023-02-20T09:32:44;101740.66;;;5.67;100.00
48553;BME280;34335;51.566;6.994;2023-02-20T09:35:19;101740.78;;;5.70;100.00
48553;BME280;34335;51.566;6.994;2023-02-20T09:37:45;101733.97;;;5.72;100.00
48553;BME280;34335;51.566;6.994;2023-02-20T09:40:12;101733.25;;;5.76;100.00
48553;BME280;34335;51.566;6.994;2023-02-20T09:43:14;101743.56;;;5.76;100.00
48553;BME280;34335;51.566;6.994;2023-02-20T09:45:55;101722.09;;;5.77;100.00
48553;BME280;34335;51.566;6.994;2023-02-20T13:02:38;101591.94;;;6.81;100.00
48553;BME280;34335;51.566;6.994;2023-02-20T13:05:06;101603.00;;;6.76;100.00
48553;BME280;34335;51.566;6.994;2023-02-20T13:07:46;101595.34;;;6.79;100.00
48553;BME280;34335;51.566;6.994;2023-02-20T13:10:26;101597.91;;;6.79;100.00
48553;BME280;34335;51.566;6.994;2023-02-20T13:12:53;101613.59;;;6.85;100.00
48553;BME280;34335;51.566;6.994;2023-02-20T13:18:22;101592.91;;;6.85;100.00
48553;BME280;34335;51.566;6.994;2023-02-20T13:20:52;101604.91;;;6.83;100.00
48553;BME280;34335;51.566;6.994;2023-02-20T13:25:46;101597.22;;;6.84;100.00
48553;BME280;34335;51.566;6.994;2023-02-20T13:30:38;101611.81;;;6.82;100.00
48553;BME280;34335;51.566;6.994;2023-02-20T13:33:12;101597.22;;;6.84;100.00
48553;BME280;34335;51.566;6.994;2023-02-20T13:38:11;101594.63;;;6.84;100.00
48553;BME280;34335;51.566;6.994;2023-02-20T13:40:44;101593.84;;;6.87;100.00
48553;BME280;34335;51.566;6.994;2023-02-20T13:43:24;101599.03;;;6.89;100.00
48553;BME280;34335;51.566;6.994;2023-02-20T13:53:41;101586.06;;;6.87;100.00
48553;BME280;34335;51.566;6.994;2023-02-20T13:56:22;101594.84;;;6.92;100.00
48553;BME280;34335;51.566;6.994;2023-02-20T13:58:49;101588.81;;;6.93;100.00
48553;BME280;34335;51.566;6.994;2023-02-20T14:01:15;101585.41;;;6.94;100.00
48553;BME280;34335;51.566;6.994;2023-02-20T14:03:40;101591.34;;;6.90;100.00
48553;BME280;34335;51.566;6.994;2023-02-20T14:06:12;101574.03;;;6.88;100.00
48553;BME280;34335;51.566;6.994;2023-02-20T14:08:41;101568.00;;;6.89;100.00
48553;BME280;34335;51.566;6.994;2023-02-20T14:11:09;101563.53;;;6.83;100.00
48553;BME280;34335;51.566;6.994;2023-02-20T14:13:35;101565.34;;;6.85;100.00
48553;BME280;34335;51.566;6.994;2023-02-20T14:16:02;101568.78;;;6.84;100.00
48553;BME280;34335;51.566;6.994;2023-02-20T14:18:30;101569.59;;;6.83;100.00
48553;BME280;34335;51.566;6.994;2023-02-20T14:21:03;101567.94;;;6.85;100.00
48553;BME280;34335;51.566;6.994;2023-02-20T14:23:30;101550.47;;;6.78;100.00
48553;BME280;34335;51.566;6.994;2023-02-20T14:26:00;101550.56;;;6.81;100.00
48553;BME280;34335;51.566;6.994;2023-02-20T14:28:29;101541.91;;;6.79;100.00
48553;BME280;34335;51.566;6.994;2023-02-20T14:31:27;101536.78;;;6.81;100.00
48553;BME280;34335;51.566;6.994;2023-02-20T14:33:55;101536.81;;;6.82;100.00
48553;BME280;34335;51.566;6.994;2023-02-20T14:37:01;101533.50;;;6.86;100.00
48553;BME280;34335;51.566;6.994;2023-02-20T14:42:21;101531.75;;;6.85;100.00
48553;BME280;34335;51.566;6.994;2023-02-20T14:44:49;101531.91;;;6.92;100.00
48553;BME280;34335;51.566;6.994;2023-02-20T14:47:16;101531.75;;;6.85;100.00
48553;BME280;34335;51.566;6.994;2023-02-20T14:49:42;101514.63;;;6.91;100.00
48553;BME280;34335;51.566;6.994;2023-02-20T14:54:33;101525.94;;;6.94;100.00
48553;BME280;34335;51.566;6.994;2023-02-20T14:56:58;101532.72;;;6.91;100.00
48553;BME280;34335;51.566;6.994;2023-02-20T14:59:29;101513.91;;;6.96;100.00
48553;BME280;34335;51.566;6.994;2023-02-20T15:02:20;101525.09;;;6.95;100.00
48553;BME280;34335;51.566;6.994;2023-02-20T15:04:55;101534.72;;;6.99;100.00
48553;BME280;34335;51.566;6.994;2023-02-20T15:07:26;101533.94;;;7.04;100.00
48553;BME280;34335;51.566;6.994;2023-02-20T15:09:53;101534.88;;;7.07;100.00
48553;BME280;34335;51.566;6.994;2023-02-20T15:12:21;101537.44;;;7.06;100.00
48553;BME280;34335;51.566;6.994;2023-02-20T15:14:59;101537.47;;;7.07;100.00
48553;BME280;34335;51.566;6.994;2023-02-20T15:17:27;101527.13;;;7.07;100.00
48553;BME280;34335;51.566;6.994;2023-02-20T15:19:53;101528.94;;;7.10;100.00
48553;BME280;34335;51.566;6.994;2023-02-20T15:24:49;101523.81;;;7.11;100.00
48553;BME280;34335;51.566;6.994;2023-02-20T15:27:16;101524.72;;;7.13;100.00
48553;BME280;34335;51.566;6.994;2023-02-20T15:29:46;101516.13;;;7.14;100.00
48553;BME280;34335;51.566;6.994;2023-02-20T15:32:18;101514.41;;;7.15;100.00
48553;BME280;34335;51.566;6.994;2023-02-20T15:34:49;101518.72;;;7.14;100.00
48553;BME280;34335;51.566;6.994;2023-02-20T15:37:28;101523.13;;;7.18;100.00
48553;BME280;34335;51.566;6.994;2023-02-20T15:39:54;101528.34;;;7.20;100.00
48553;BME280;34335;51.566;6.994;2023-02-20T15:42:21;101520.63;;;7.22;100.00
48553;BME280;34335;51.566;6.994;2023-02-20T15:44:48;101524.97;;;7.23;100.00
48553;BME280;34335;51.566;6.994;2023-02-20T15:47:14;101517.94;;;7.18;100.00
48553;BME280;34335;51.566;6.994;2023-02-20T15:49:39;101524.03;;;7.21;100.00
48553;BME280;34335;51.566;6.994;2023-02-20T15:52:06;101524.97;;;7.23;100.00
48553;BME280;34335;51.566;6.994;2023-02-20T15:54:34;101516.31;;;7.22;100.00
48553;BME280;34335;51.566;6.994;2023-02-20T15:57:00;101524.94;;;7.21;100.00
48553;BME280;34335;51.566;6.994;2023-02-20T15:59:25;101533.66;;;7.25;100.00
48553;BME280;34335;51.566;6.994;2023-02-20T16:01:50;101540.63;;;7.27;100.00
48553;BME280;34335;51.566;6.994;2023-02-20T16:04:16;101533.59;;;7.23;100.00
48553;BME280;34335;51.566;6.994;2023-02-20T16:06:42;101534.41;;;7.22;100.00
48553;BME280;34335;51.566;6.994;2023-02-20T16:09:08;101529.31;;;7.24;100.00
48553;BME280;34335;51.566;6.994;2023-02-20T16:11:39;101530.97;;;7.22;100.00
48553;BME280;34335;51.566;6.994;2023-02-20T16:14:05;101512.88;;;7.22;100.00
48553;BME280;34335;51.566;6.994;2023-02-20T16:16:39;101514.59;;;7.21;100.00
48553;BME280;34335;51.566;6.994;2023-02-20T16:19:12;101507.78;;;7.25;100.00
48553;BME280;34335;51.566;6.994;2023-02-20T16:21:38;101510.38;;;7.25;100.00
48553;BME280;34335;51.566;6.994;2023-02-20T16:24:03;101515.56;;;7.26;100.00
48553;BME280;34335;51.566;6.994;2023-02-20T16:26:30;101518.97;;;7.24;100.00
48553;BME280;34335;51.566;6.994;2023-02-20T16:29:00;101519.81;;;7.24;100.00
48553;BME280;34335;51.566;6.994;2023-02-20T16:34:25;101532.81;;;7.26;100.00
48553;BME280;34335;51.566;6.994;2023-02-20T16:36:51;101524.19;;;7.27;100.00
48553;BME280;34335;51.566;6.994;2023-02-20T16:39:17;101532.72;;;7.23;100.00
48553;BME280;34335;51.566;6.994;2023-02-20T16:41:42;101522.41;;;7.24;100.00
48553;BME280;34335;51.566;6.994;2023-02-20T16:44:13;101525.88;;;7.25;100.00
48553;BME280;34335;51.566;6.994;2023-02-20T16:46:39;101525.06;;;7.26;100.00
48553;BME280;34335;51.566;6.994;2023-02-20T16:49:04;101520.66;;;7.23;100.00
48553;BME280;34335;51.566;6.994;2023-02-20T16:51:30;101532.81;;;7.26;100.00
48553;BME280;34335;51.566;6.994;2023-02-20T16:53:56;101528.59;;;7.29;100.00
48553;BME280;34335;51.566;6.994;2023-02-20T16:56:21;101532.84;;;7.27;100.00
48553;BME280;34335;51.566;6.994;2023-02-20T16:58:46;101532.75;;;7.24;100.00
48553;BME280;34335;51.566;6.994;2023-02-20T17:01:12;101535.34;;;7.24;100.00
48553;BME280;34335;51.566;6.994;2023-02-20T17:03:37;101538.03;;;7.27;100.00
48553;BME280;34335;51.566;6.994;2023-02-20T17:06:02;101536.28;;;7.28;100.00
48553;BME280;34335;51.566;6.994;2023-02-20T17:08:27;101538.00;;;7.26;100.00